Página principal
METAR-TAF:

METAR-TAF

Aeroportos :

Mendoza, Argentina

Aeroporto Internacional Gobernador Francisco Gabrielli

latitude: 32-50S, longitude: 068-47W, altura: 705 m

Observação actual do tempo

O boletim foi feito há 56 minutos, às 05:00 UTC
Vento 6 kt de sul
Temperatura 13°C
Humidade 28%
Pressão 1024 hPa
Visibilidade 10 km ou mais
sem nuvens abaixo de 1500 metros e sem cumulonimbus

METAR: SAME 200500Z 18006KT CAVOK 13/M05 Q1024

Hora: 02:56 (05:56 UTC)

Previsão

O boletim foi feito há 56 minutos, às 05:00 UTC
Previsão válida de 20 às 06 UTC a 21 às 06 UTC
Vento 10 kt de sul
Visibilidade 10 km ou mais
Poucas nuvensa uma altura de 4000 ft
Probabilidade 40% :
Temporariamente
de 20 às 12 UTC a 20 às 14 UTC
Vento 3 kt com direcção variável
Visibilidade: 6000 m

TAF: SAME 200500Z 2006/2106 18010KT 9999 FEW040 TX19/2020Z TN05/2010Z PROB40 TEMPO 2012/2014 VRB03KT 6000 FUHZ NSC

Observações e previsões do tempo de mais de 4000 aeroportos (mensagens METAR e TAF).

As estações disponíveis são os pontos amarelos e vermelhos sobre o mapa.

Mova o rato sobre o mapa para ver o nome da estação.

Depois clique no ponto para visualizar as observações e previsões meteorológicas.

Para alterar o mapa : clique nos botões verdes com uma cruz preta para aumentar o zoom; no botão verde com uma pitada de zoom; ou nas setas verdes para mapas adjacentes.


METAR-TAF: